Time;durP1;ratioP1;P1;durP2;ratioP2;P2;SDS_P1;SDS_P2;PMS_P1;PMS_P2;Temp;Humidity;BMP_temperature;BMP_pressure;BME280_temperature;BME280_humidity;BME280_pressure;Samples;Min_cycle;Max_cycle;Signal;HPM_P1;HPM_P2
2021/12/21 00:01:12;;;;;;;;;44.67;41.33;;;;;2.48;67.91;99852.69;5092464;27;45500;-75
2021/12/21 00:03:37;;;;;;;;;41.33;36.33;;;;;2.47;68.07;99853.56;5093217;27;45735;-75
2021/12/21 00:06:05;;;;;;;;;40.67;35.33;;;;;2.43;67.96;99850.94;5095556;27;45403;-75
2021/12/21 00:08:31;;;;;;;;;41.67;37.00;;;;;2.39;68.06;99845.69;5093119;27;45631;-75
2021/12/21 00:10:58;;;;;;;;;48.00;33.33;;;;;2.36;68.32;99845.69;5095655;27;45494;-75
2021/12/21 00:19:03;;;;;;;;;54.67;38.33;;;;;2.30;67.96;99845.66;5082873;27;46216;-75
2021/12/21 00:21:38;;;;;;;;;45.00;36.00;;;;;2.29;68.26;99839.59;5086603;27;45483;-75
2021/12/21 00:24:12;;;;;;;;;28.00;24.00;;;;;2.27;68.02;99843.06;5092477;27;45444;-75
2021/12/21 00:26:38;;;;;;;;;41.00;32.00;;;;;2.25;68.14;99839.56;5089710;27;45384;-74
2021/12/21 00:29:03;;;;;;;;;49.00;38.33;;;;;2.27;68.49;99843.06;5093006;27;46235;-75
2021/12/21 00:31:33;;;;;;;;;37.67;31.67;;;;;2.26;67.98;99843.91;5093180;27;45498;-75
2021/12/21 00:33:59;;;;;;;;;3.67;0.00;;;;;2.25;68.17;99839.56;5092279;27;45574;-75
2021/12/21 00:36:28;;;;;;;;;40.33;31.33;;;;;2.26;68.21;99838.72;5090235;27;45484;-74
2021/12/21 00:38:55;;;;;;;;;39.67;34.00;;;;;2.24;68.08;99836.09;5088129;27;45979;-75
2021/12/21 00:41:21;;;;;;;;;35.00;30.67;;;;;2.23;68.22;99836.97;5092343;27;45449;-75
2021/12/21 00:43:47;;;;;;;;;38.00;29.67;;;;;2.23;68.43;99829.16;5089267;27;45591;-75
2021/12/21 00:46:14;;;;;;;;;38.00;32.00;;;;;2.26;68.13;99830.91;5095733;27;45418;-75
2021/12/21 00:48:48;;;;;;;;;38.00;31.00;;;;;2.26;67.89;99828.31;5090466;27;45398;-75
2021/12/21 00:51:15;;;;;;;;;43.33;36.67;;;;;2.23;68.10;99829.16;5095265;27;45456;-75
2021/12/21 00:53:40;;;;;;;;;37.67;34.67;;;;;2.23;68.13;99830.88;5089127;27;45517;-75
2021/12/21 00:56:06;;;;;;;;;41.67;32.33;;;;;2.22;68.24;99835.22;5109717;27;45444;-75
2021/12/21 00:58:32;;;;;;;;;36.67;29.67;;;;;2.21;68.05;99832.59;5089832;27;45396;-75
2021/12/21 01:01:02;;;;;;;;;33.67;27.33;;;;;2.23;68.14;99836.09;5094816;27;45231;-75
2021/12/21 01:03:31;;;;;;;;;31.67;25.67;;;;;2.21;68.06;99835.22;5094358;27;45437;-75
2021/12/21 01:06:12;;;;;;;;;38.67;30.67;;;;;2.21;67.99;99825.66;5093924;27;45454;-75
2021/12/21 01:09:08;;;;;;;;;44.33;34.00;;;;;2.23;67.68;99825.69;5090729;27;46172;-75
2021/12/21 01:11:31;;;;;;;;;47.33;39.67;;;;;2.20;67.85;99829.13;5091260;27;45340;-75
2021/12/21 01:16:30;;;;;;;;;40.33;35.00;;;;;2.15;67.77;99830.00;5095770;27;45422;-75
2021/12/21 01:19:33;;;;;;;;;42.33;34.67;;;;;2.12;67.79;99828.25;5098294;27;45686;-75
2021/12/21 01:24:43;;;;;;;;;41.67;32.00;;;;;2.09;67.76;99820.41;5098964;27;45445;-75
2021/12/21 01:27:31;;;;;;;;;31.67;28.33;;;;;2.09;67.75;99825.63;5098546;27;45612;-75
2021/12/21 01:32:48;;;;;;;;;39.33;36.00;;;;;2.03;67.83;99828.19;5085616;27;45579;-75
2021/12/21 01:35:49;;;;;;;;;37.67;30.67;;;;;2.01;67.73;99837.72;5088063;27;45302;-75
2021/12/21 01:38:18;;;;;;;;;43.00;35.33;;;;;2.01;67.81;99837.72;5085086;27;45241;-75
2021/12/21 01:40:53;;;;;;;;;40.00;30.33;;;;;2.01;68.25;99830.75;5112928;27;47271;-75
2021/12/21 01:51:13;;;;;;;;;37.33;27.67;;;;;2.03;68.09;99838.56;5094853;27;45437;-75
2021/12/21 01:53:40;;;;;;;;;35.33;31.00;;;;;2.03;68.07;99841.19;5093446;27;45533;-75
2021/12/21 01:56:06;;;;;;;;;23.67;20.33;;;;;2.05;68.29;99839.47;5095701;27;45477;-75
2021/12/21 01:58:33;;;;;;;;;34.33;25.00;;;;;2.09;67.86;99843.81;5079108;27;45531;-75
2021/12/21 02:01:01;;;;;;;;;21.67;21.33;;;;;2.09;68.03;99841.22;5096660;27;45524;-75
2021/12/21 02:03:27;;;;;;;;;29.67;26.33;;;;;2.07;67.82;99835.13;5096177;27;45435;-75
2021/12/21 02:05:52;;;;;;;;;35.33;26.33;;;;;2.03;67.49;99834.25;5097968;27;45386;-75
2021/12/21 02:08:18;;;;;;;;;32.67;23.67;;;;;2.01;67.89;99828.16;5096230;27;45503;-75
2021/12/21 02:10:43;;;;;;;;;26.00;22.00;;;;;2.01;67.53;99835.97;5098124;27;45488;-75
2021/12/21 02:13:09;;;;;;;;;38.00;33.33;;;;;1.99;68.04;99823.84;5084559;27;45433;-75
2021/12/21 02:15:34;;;;;;;;;37.67;28.00;;;;;2.01;67.86;99833.38;5098257;27;45596;-75
2021/12/21 02:27:58;;;;;;;;;41.00;32.67;;;;;1.93;67.83;99832.47;5083842;27;45530;-75
2021/12/21 02:30:25;;;;;;;;;33.33;27.67;;;;;1.91;67.68;99834.19;5097668;27;45507;-75
2021/12/21 02:32:51;;;;;;;;;34.67;22.67;;;;;1.92;68.09;99835.06;5084806;27;45316;-75
2021/12/21 02:35:18;;;;;;;;;36.00;26.33;;;;;1.91;67.58;99825.50;5087302;27;45481;-75
2021/12/21 02:37:44;;;;;;;;;36.33;33.00;;;;;1.90;67.64;99828.97;5096674;27;46209;-75
2021/12/21 02:40:10;;;;;;;;;39.33;30.00;;;;;1.92;67.92;99837.66;5113177;27;45614;-75
2021/12/21 02:42:35;;;;;;;;;31.67;17.67;;;;;1.93;67.80;99832.47;5087384;27;45387;-75
2021/12/21 02:45:01;;;;;;;;;40.00;29.00;;;;;1.95;67.85;99827.28;5097893;27;45366;-75
2021/12/21 02:47:26;;;;;;;;;34.67;27.67;;;;;1.96;67.61;99821.22;5092860;27;45529;-75
2021/12/21 02:49:52;;;;;;;;;39.00;30.33;;;;;1.95;67.43;99829.88;5097376;27;45386;-75
2021/12/21 02:52:17;;;;;;;;;24.00;22.67;;;;;1.92;67.61;99829.84;5095727;27;45367;-75
2021/12/21 02:54:43;;;;;;;;;32.00;26.33;;;;;1.91;67.89;99825.50;5097275;27;45380;-75
2021/12/21 02:57:08;;;;;;;;;42.00;34.67;;;;;1.89;67.83;99822.03;5093567;27;46037;-75
2021/12/21 02:59:34;;;;;;;;;41.67;29.33;;;;;1.88;67.77;99825.50;5097503;27;45883;-75
2021/12/21 03:01:59;;;;;;;;;33.33;31.33;;;;;1.86;67.91;99825.47;5097304;27;45383;-75
2021/12/21 03:04:25;;;;;;;;;47.67;33.33;;;;;1.86;67.86;99824.59;5097068;27;45434;-75
2021/12/21 03:11:56;;;;;;;;;30.00;27.67;;;;;1.78;67.75;99823.72;5094769;27;45369;-75
2021/12/21 03:14:25;;;;;;;;;29.67;26.00;;;;;1.75;67.73;99820.22;5096980;27;45456;-75
2021/12/21 03:16:51;;;;;;;;;29.67;22.00;;;;;1.78;67.84;99819.38;5108101;27;45364;-75
2021/12/21 03:19:16;;;;;;;;;34.67;31.33;;;;;1.79;67.70;99823.72;5087991;27;45490;-75
2021/12/21 03:21:42;;;;;;;;;38.00;31.00;;;;;1.74;67.83;99810.69;5095758;27;45352;-75
2021/12/21 03:24:09;;;;;;;;;30.33;25.00;;;;;1.73;68.04;99810.66;5096924;27;45498;-75
2021/12/21 03:26:35;;;;;;;;;34.00;23.33;;;;;1.75;67.97;99815.03;5091314;27;45488;-75
2021/12/21 03:29:01;;;;;;;;;34.67;22.67;;;;;1.78;68.08;99816.78;5094335;27;45414;-75
2021/12/21 03:31:26;;;;;;;;;34.00;27.67;;;;;1.77;67.82;99807.25;5092690;27;45541;-75
2021/12/21 03:33:52;;;;;;;;;35.00;28.00;;;;;1.78;67.69;99808.97;5095436;27;45407;-75
2021/12/21 03:36:18;;;;;;;;;31.00;26.33;;;;;1.78;67.61;99808.13;5092929;27;45541;-75
2021/12/21 03:38:53;;;;;;;;;34.33;28.00;;;;;1.78;67.74;99803.78;5094801;27;45329;-75
2021/12/21 03:41:20;;;;;;;;;33.00;31.33;;;;;1.79;67.58;99802.06;5092793;27;45339;-75
2021/12/21 03:43:46;;;;;;;;;34.33;29.00;;;;;1.78;67.88;99793.38;5089754;27;45539;-75
2021/12/21 03:46:14;;;;;;;;;36.33;27.67;;;;;1.77;67.59;99794.25;5080277;27;45539;-75
2021/12/21 03:48:43;;;;;;;;;31.33;26.00;;;;;1.73;67.65;99785.56;5089845;27;45924;-75
2021/12/21 03:51:10;;;;;;;;;35.00;25.00;;;;;1.75;67.93;99796.84;5094305;27;45649;-75
2021/12/21 03:53:36;;;;;;;;;34.33;31.67;;;;;1.75;67.57;99793.38;5089000;27;45450;-75
2021/12/21 03:58:46;;;;;;;;;31.33;26.00;;;;;1.78;67.86;99789.91;5092682;27;45433;-75
2021/12/21 04:01:12;;;;;;;;;25.33;20.67;;;;;1.80;67.62;99786.47;5094655;27;45348;-75
2021/12/21 04:03:38;;;;;;;;;37.00;23.67;;;;;1.78;67.51;99783.00;5090499;27;45418;-75
2021/12/21 04:06:03;;;;;;;;;33.67;31.33;;;;;1.79;67.44;99787.34;5085077;27;45447;-75
2021/12/21 04:08:29;;;;;;;;;38.00;32.67;;;;;1.80;67.68;99781.28;5092836;27;45439;-75
2021/12/21 04:10:54;;;;;;;;;31.67;25.67;;;;;1.81;67.53;99793.41;5096392;27;45368;-75
2021/12/21 04:13:20;;;;;;;;;33.00;26.00;;;;;1.82;67.51;99778.69;5093196;27;45379;-75
2021/12/21 04:15:49;;;;;;;;;32.67;28.33;;;;;1.83;67.55;99783.03;5122145;27;45360;-75
2021/12/21 04:18:18;;;;;;;;;32.00;26.33;;;;;1.82;67.40;99783.88;5082499;27;46162;-75
2021/12/21 04:20:44;;;;;;;;;37.00;28.67;;;;;1.83;67.21;99788.22;5095715;27;45421;-75
2021/12/21 04:23:09;;;;;;;;;32.00;26.00;;;;;1.82;67.32;99784.75;5095299;27;45399;-75
2021/12/21 04:25:35;;;;;;;;;19.33;17.33;;;;;1.81;67.21;99787.34;5095927;27;45298;-75
2021/12/21 04:28:01;;;;;;;;;34.00;27.00;;;;;1.79;67.42;99795.13;5078865;27;46707;-75
2021/12/21 04:30:27;;;;;;;;;33.33;29.33;;;;;1.78;67.13;99788.19;5086857;27;45303;-75
2021/12/21 04:32:53;;;;;;;;;27.00;23.00;;;;;1.77;67.46;99788.19;5084690;27;45224;-73
2021/12/21 04:35:20;;;;;;;;;28.33;23.67;;;;;1.77;67.46;99783.84;5093805;27;45559;-73
2021/12/21 04:37:58;;;;;;;;;28.33;23.33;;;;;1.76;67.42;99795.09;5083792;27;46241;-73
2021/12/21 04:40:38;;;;;;;;;32.67;28.00;;;;;1.73;67.39;99788.16;5095563;27;45442;-74
2021/12/21 04:43:04;;;;;;;;;31.33;25.33;;;;;1.71;67.00;99789.00;5087103;27;45448;-74
2021/12/21 04:45:30;;;;;;;;;27.33;25.33;;;;;1.68;67.06;99796.78;5095313;27;45360;-74
2021/12/21 04:47:55;;;;;;;;;35.33;25.00;;;;;1.66;66.95;99785.53;5085084;27;45491;-75
2021/12/21 04:50:21;;;;;;;;;35.33;29.67;;;;;1.63;67.25;99793.28;5095221;27;45422;-76
2021/12/21 04:52:46;;;;;;;;;36.00;29.33;;;;;1.63;67.34;99793.28;5086854;27;45935;-75
2021/12/21 04:55:12;;;;;;;;;23.00;21.67;;;;;1.62;67.47;99795.03;5090817;27;45451;-76
2021/12/21 04:57:37;;;;;;;;;30.00;27.67;;;;;1.60;67.48;99788.94;5089980;27;46404;-76
2021/12/21 05:00:05;;;;;;;;;29.67;25.33;;;;;1.56;67.29;99789.78;5125993;27;45443;-75
2021/12/21 05:02:30;;;;;;;;;27.67;24.00;;;;;1.54;67.55;99793.22;5092319;27;45325;-76
2021/12/21 05:04:55;;;;;;;;;19.33;17.33;;;;;1.54;67.65;99801.88;5093675;27;45381;-75
2021/12/21 05:07:24;;;;;;;;;28.33;19.33;;;;;1.53;67.35;99799.28;5093843;27;46070;-75
2021/12/21 05:09:55;;;;;;;;;31.33;27.00;;;;;1.53;67.74;99801.88;5093266;27;45455;-76
2021/12/21 05:12:21;;;;;;;;;25.67;25.00;;;;;1.50;67.75;99796.69;5092005;27;45459;-76
2021/12/21 05:14:47;;;;;;;;;35.00;28.67;;;;;1.48;67.35;99794.06;5093311;27;45511;-76
2021/12/21 05:17:12;;;;;;;;;25.00;21.67;;;;;1.47;67.56;99799.25;5094116;27;45698;-75
2021/12/21 05:19:38;;;;;;;;;33.00;24.00;;;;;1.47;67.87;99797.53;5094620;27;45360;-75
2021/12/21 05:22:03;;;;;;;;;29.00;23.00;;;;;1.48;67.62;99796.66;5094969;27;45368;-75
2021/12/21 05:24:29;;;;;;;;;29.00;23.67;;;;;1.48;67.71;99794.06;5093833;27;45474;-75
2021/12/21 05:26:54;;;;;;;;;35.67;34.00;;;;;1.48;67.23;99795.78;5091354;27;45489;-75
2021/12/21 05:29:20;;;;;;;;;36.33;30.67;;;;;1.48;67.47;99796.66;5094328;27;45371;-75
2021/12/21 05:31:45;;;;;;;;;38.67;27.00;;;;;1.48;67.56;99804.47;5092645;27;45481;-75
2021/12/21 05:34:11;;;;;;;;;31.67;28.33;;;;;1.48;67.36;99804.47;5091213;27;45592;-75
2021/12/21 05:36:36;;;;;;;;;33.33;28.33;;;;;1.49;67.31;99794.94;5090391;27;46365;-76
2021/12/21 05:39:05;;;;;;;;;30.00;18.33;;;;;1.48;67.38;99791.47;5089255;27;45462;-75
2021/12/21 05:41:50;;;;;;;;;26.67;23.67;;;;;1.48;67.39;99790.59;5094546;27;45370;-76
2021/12/21 05:44:17;;;;;;;;;39.33;35.67;;;;;1.48;66.90;99791.47;5092822;27;45179;-75
2021/12/21 05:46:43;;;;;;;;;32.33;23.33;;;;;1.45;66.82;99786.25;5090484;27;46132;-76
2021/12/21 05:49:08;;;;;;;;;35.00;27.33;;;;;1.44;67.15;99788.84;5090364;27;45696;-76
2021/12/21 05:51:34;;;;;;;;;31.67;23.00;;;;;1.44;67.08;99791.44;5089827;27;45346;-76
2021/12/21 05:54:00;;;;;;;;;31.67;26.00;;;;;1.43;67.17;99798.34;5091929;27;45299;-75
2021/12/21 05:56:25;;;;;;;;;36.67;26.33;;;;;1.41;67.35;99802.66;5089691;27;47562;-75
2021/12/21 05:58:50;;;;;;;;;24.33;19.33;;;;;1.42;67.35;99795.75;5125080;27;45404;-75
2021/12/21 06:01:16;;;;;;;;;33.00;24.33;;;;;1.43;67.35;99803.53;5094822;27;45304;-75
2021/12/21 06:03:42;;;;;;;;;31.00;23.33;;;;;1.44;67.22;99796.63;5094121;27;45421;-75
2021/12/21 06:06:12;;;;;;;;;34.00;32.00;;;;;1.46;67.42;99800.09;5096394;27;45517;-75
2021/12/21 06:08:38;;;;;;;;;28.00;23.67;;;;;1.45;67.18;99811.34;5095830;27;45381;-75
2021/12/21 06:11:06;;;;;;;;;30.67;25.33;;;;;1.42;67.12;99816.53;5096902;27;45381;-75
2021/12/21 06:26:44;;;;;;;;;28.67;26.33;;;;;1.35;67.23;99813.88;5091032;27;45339;-74
2021/12/21 06:29:10;;;;;;;;;29.67;22.33;;;;;1.35;67.42;99810.41;5089968;27;45469;-74
2021/12/21 06:31:35;;;;;;;;;36.33;30.00;;;;;1.33;67.11;99805.22;5092416;27;45463;-74
2021/12/21 06:34:01;;;;;;;;;30.33;27.33;;;;;1.32;67.04;99805.19;5086868;27;45396;-74
2021/12/21 06:36:27;;;;;;;;;28.33;23.00;;;;;1.30;67.33;99806.91;5078901;27;46416;-74
2021/12/21 06:38:53;;;;;;;;;38.67;32.67;;;;;1.28;67.10;99808.63;5088147;27;45441;-74
2021/12/21 06:41:20;;;;;;;;;34.33;24.67;;;;;1.25;66.86;99806.88;5094030;27;45586;-74
2021/12/21 06:43:46;;;;;;;;;32.33;22.67;;;;;1.25;66.95;99811.19;5090563;27;45442;-74
2021/12/21 06:53:55;;;;;;;;;25.00;22.67;;;;;1.22;67.33;99806.84;5095568;27;45391;-74
2021/12/21 06:56:21;;;;;;;;;34.00;30.33;;;;;1.22;67.32;99818.94;5092732;27;45407;-74
2021/12/21 06:58:47;;;;;;;;;31.67;22.00;;;;;1.21;67.38;99815.47;5093212;27;45359;-74
2021/12/21 07:01:16;;;;;;;;;36.00;29.67;;;;;1.21;67.28;99807.69;5094675;27;45463;-74
2021/12/21 07:03:43;;;;;;;;;28.67;26.00;;;;;1.22;67.20;99816.34;5093287;27;45296;-74
2021/12/21 07:06:10;;;;;;;;;26.00;23.00;;;;;1.20;66.98;99813.75;5094943;27;45588;-74
2021/12/21 07:08:46;;;;;;;;;33.33;27.67;;;;;1.22;67.28;99816.34;5093857;27;45341;-74
2021/12/21 07:19:10;;;;;;;;;38.33;31.67;;;;;1.25;67.36;99819.84;5081438;27;45588;-76
2021/12/21 07:21:36;;;;;;;;;37.33;30.33;;;;;1.27;67.36;99819.88;5106579;27;45620;-74
2021/12/21 07:24:02;;;;;;;;;37.33;32.67;;;;;1.26;67.05;99826.78;5095656;27;45329;-74
2021/12/21 07:26:28;;;;;;;;;32.67;27.33;;;;;1.25;67.04;99827.66;5089668;27;45495;-74
2021/12/21 07:28:53;;;;;;;;;36.67;29.00;;;;;1.24;67.50;99828.50;5088182;27;45430;-76
2021/12/21 07:31:19;;;;;;;;;20.00;18.67;;;;;1.25;67.21;99829.38;5092642;27;45516;-74
2021/12/21 07:33:44;;;;;;;;;29.00;27.67;;;;;1.24;67.29;99828.50;5087151;27;45636;-75
2021/12/21 07:36:10;;;;;;;;;36.00;30.67;;;;;1.27;67.37;99833.72;5090034;27;45643;-75
2021/12/21 07:38:35;;;;;;;;;39.00;32.33;;;;;1.30;67.46;99831.16;5085021;27;45467;-75
2021/12/21 07:41:01;;;;;;;;;37.67;29.33;;;;;1.32;67.18;99826.84;5094514;27;45357;-75
2021/12/21 07:43:28;;;;;;;;;35.67;24.67;;;;;1.34;67.29;99830.31;5094677;27;45450;-75
2021/12/21 07:45:54;;;;;;;;;35.33;29.33;;;;;1.36;67.16;99832.91;5095312;27;45410;-75
2021/12/21 07:48:20;;;;;;;;;37.00;26.33;;;;;1.36;66.93;99833.78;5102252;27;45308;-75
2021/12/21 07:50:47;;;;;;;;;28.67;25.67;;;;;1.37;67.19;99834.66;5095790;27;45405;-75
2021/12/21 07:53:14;;;;;;;;;25.67;19.33;;;;;1.36;66.98;99833.78;5100881;27;45426;-75
2021/12/21 07:55:40;;;;;;;;;41.00;30.67;;;;;1.32;66.97;99837.25;5090617;27;46781;-75
2021/12/21 07:58:05;;;;;;;;;32.67;28.67;;;;;1.32;66.84;99844.16;5094276;27;45418;-75
2021/12/21 08:00:31;;;;;;;;;35.00;28.00;;;;;1.33;67.27;99845.91;5095633;27;45359;-75
2021/12/21 08:02:57;;;;;;;;;30.33;20.33;;;;;1.35;67.16;99845.03;5091703;27;45389;-76
2021/12/21 08:05:23;;;;;;;;;23.67;20.00;;;;;1.39;67.20;99849.41;5095126;27;46468;-75
2021/12/21 08:07:54;;;;;;;;;42.00;35.67;;;;;1.44;66.98;99852.06;5093890;27;45317;-74
2021/12/21 08:10:27;;;;;;;;;35.67;34.33;;;;;1.46;66.92;99852.06;5095281;27;45480;-75
2021/12/21 08:12:54;;;;;;;;;35.67;30.67;;;;;1.46;67.04;99850.34;5081074;27;45486;-73
2021/12/21 08:15:20;;;;;;;;;39.67;33.00;;;;;1.48;66.56;99851.22;5095011;27;45442;-75
2021/12/21 08:17:46;;;;;;;;;29.33;26.33;;;;;1.49;66.80;99850.38;5094428;27;45347;-75
2021/12/21 08:20:11;;;;;;;;;34.00;30.00;;;;;1.52;66.67;99854.69;5094997;27;45407;-75
2021/12/21 08:22:37;;;;;;;;;32.00;28.00;;;;;1.53;66.40;99851.22;5084842;27;45435;-75
2021/12/21 08:25:03;;;;;;;;;32.67;27.67;;;;;1.55;66.45;99849.53;5089099;27;46657;-75
2021/12/21 08:27:28;;;;;;;;;38.00;31.67;;;;;1.57;66.27;99860.81;5085074;27;45433;-75
2021/12/21 08:29:54;;;;;;;;;34.67;26.67;;;;;1.58;66.50;99860.81;5093933;27;45423;-75
2021/12/21 08:32:19;;;;;;;;;35.00;30.33;;;;;1.59;66.46;99864.28;5091273;27;45305;-75
2021/12/21 08:34:45;;;;;;;;;33.67;27.67;;;;;1.59;66.56;99866.88;5086288;27;45874;-75
2021/12/21 08:37:10;;;;;;;;;33.33;29.00;;;;;1.61;66.82;99868.66;5084991;27;45414;-75
2021/12/21 08:39:39;;;;;;;;;33.33;28.00;;;;;1.63;66.12;99863.47;5093220;27;45550;-76
2021/12/21 08:42:13;;;;;;;;;29.67;27.67;;;;;1.67;66.40;99868.69;5086129;27;45510;-75
2021/12/21 08:44:47;;;;;;;;;38.33;28.00;;;;;1.68;66.80;99859.16;5080381;27;45527;-75
2021/12/21 08:47:14;;;;;;;;;31.00;23.67;;;;;1.72;66.08;99866.13;5089475;27;45581;-75
2021/12/21 08:49:39;;;;;;;;;35.00;28.33;;;;;1.78;66.84;99871.38;5091160;27;45447;-75
2021/12/21 08:52:05;;;;;;;;;31.33;26.67;;;;;1.86;66.19;99869.66;5089423;27;45657;-75
2021/12/21 08:54:31;;;;;;;;;38.33;31.33;;;;;1.93;66.25;99871.47;5091710;27;46328;-75
2021/12/21 08:56:56;;;;;;;;;42.33;31.67;;;;;2.01;66.19;99874.13;5090814;27;45438;-75
2021/12/21 08:59:22;;;;;;;;;53.33;37.33;;;;;2.08;66.42;99871.56;5092641;27;45455;-76
2021/12/21 09:01:47;;;;;;;;;37.00;29.00;;;;;2.17;65.86;99872.50;5090956;27;45394;-76
2021/12/21 09:04:15;;;;;;;;;47.33;32.33;;;;;2.29;65.42;99876.03;5084845;27;45539;-76
2021/12/21 09:06:41;;;;;;;;;33.67;28.00;;;;;2.34;65.65;99873.44;5091409;27;45537;-76
2021/12/21 09:09:06;;;;;;;;;29.00;19.67;;;;;2.35;65.13;99877.75;5086426;27;45509;-76
2021/12/21 09:11:32;;;;;;;;;39.00;33.67;;;;;2.37;65.29;99866.50;5092335;27;45426;-75
2021/12/21 09:13:57;;;;;;;;;40.67;28.33;;;;;2.33;64.69;99869.97;5093752;27;46488;-75
2021/12/21 09:16:23;;;;;;;;;35.00;29.33;;;;;2.33;64.76;99874.31;5094050;27;45444;-75
2021/12/21 09:18:48;;;;;;;;;40.00;33.67;;;;;2.37;65.37;99873.44;5083859;27;45563;-74
2021/12/21 09:21:14;;;;;;;;;31.67;29.33;;;;;2.37;64.64;99870.84;5092148;27;45410;-75
2021/12/21 09:23:41;;;;;;;;;50.33;39.00;;;;;2.40;64.76;99871.72;5086866;27;45588;-75
2021/12/21 09:26:07;;;;;;;;;41.33;32.67;;;;;2.44;64.67;99883.03;5093777;27;45467;-76
2021/12/21 09:28:32;;;;;;;;;39.00;35.67;;;;;2.45;64.69;99883.03;5082627;27;45297;-76
2021/12/21 09:30:58;;;;;;;;;39.67;30.67;;;;;2.49;64.55;99890.88;5094070;27;45290;-76
2021/12/21 09:33:23;;;;;;;;;32.00;30.00;;;;;2.50;64.52;99895.22;5084781;27;46523;-76
2021/12/21 09:35:51;;;;;;;;;35.67;31.67;;;;;2.51;64.24;99896.94;5096035;27;45528;-76
2021/12/21 09:38:16;;;;;;;;;34.33;29.67;;;;;2.55;64.14;99894.34;5085222;27;45577;-75
2021/12/21 09:40:42;;;;;;;;;45.33;37.67;;;;;2.59;64.40;99896.09;5097738;27;45343;-76
2021/12/21 09:43:09;;;;;;;;;36.00;29.33;;;;;2.63;64.36;99897.00;5088260;27;46229;-75
2021/12/21 09:45:36;;;;;;;;;30.00;24.00;;;;;2.64;64.31;99886.59;5092690;27;45449;-75
2021/12/21 09:48:02;;;;;;;;;35.67;29.67;;;;;2.64;64.51;99898.72;5094031;27;45418;-76
2021/12/21 09:50:27;;;;;;;;;34.33;32.33;;;;;2.64;64.28;99899.59;5096571;27;45596;-75
2021/12/21 09:52:54;;;;;;;;;39.00;33.67;;;;;2.69;63.99;99897.00;5092047;27;46438;-76
2021/12/21 09:55:20;;;;;;;;;37.00;32.67;;;;;2.74;63.76;99897.91;5112490;27;45607;-76
2021/12/21 09:57:48;;;;;;;;;34.33;30.00;;;;;2.81;64.10;99897.06;5091130;27;45540;-75
2021/12/21 10:00:22;;;;;;;;;44.67;37.67;;;;;2.86;63.85;99902.25;5096504;27;45485;-76
2021/12/21 10:02:47;;;;;;;;;38.33;32.67;;;;;2.89;63.63;99894.47;5106915;27;47145;-75
2021/12/21 10:05:20;;;;;;;;;49.33;37.33;;;;;2.91;63.69;99901.44;5093517;27;45429;-75
2021/12/21 10:07:58;;;;;;;;;46.33;37.67;;;;;2.96;63.72;99891.91;5087441;27;45473;-75
2021/12/21 10:10:23;;;;;;;;;40.33;34.67;;;;;3.02;63.21;99894.50;5095315;27;45542;-75
2021/12/21 10:12:49;;;;;;;;;46.33;38.67;;;;;3.02;63.49;99894.50;5095902;27;45452;-75
2021/12/21 10:15:16;;;;;;;;;43.33;35.00;;;;;3.05;63.58;99901.47;5094824;27;45475;-75
2021/12/21 10:18:11;;;;;;;;;36.33;29.33;;;;;3.06;64.04;99905.81;5091653;27;45452;-75
2021/12/21 10:20:39;;;;;;;;;43.67;35.67;;;;;3.08;63.46;99902.34;5075552;27;46033;-75
2021/12/21 10:23:14;;;;;;;;;42.33;34.67;;;;;3.17;63.46;99898.91;5088314;27;46114;-75
2021/12/21 10:25:46;;;;;;;;;55.00;42.00;;;;;3.23;63.46;99895.44;5088227;27;45287;-75
2021/12/21 10:28:12;;;;;;;;;58.00;45.67;;;;;3.29;64.03;99887.63;5091951;27;45684;-75
2021/12/21 10:30:51;;;;;;;;;53.33;42.33;;;;;3.37;63.75;99891.97;5097301;27;45325;-75
2021/12/21 10:33:17;;;;;;;;;52.67;43.33;;;;;3.41;63.78;99891.09;5082233;27;45600;-75
2021/12/21 10:35:43;;;;;;;;;57.00;43.33;;;;;3.47;63.97;99883.31;5089567;27;45411;-75
2021/12/21 10:38:08;;;;;;;;;64.00;46.00;;;;;3.57;63.78;99880.69;5093627;27;45450;-75
2021/12/21 10:40:34;;;;;;;;;50.33;40.67;;;;;3.64;63.50;99879.84;5095709;27;45537;-75
2021/12/21 10:43:04;;;;;;;;;58.33;44.67;;;;;3.70;63.91;99885.03;5079079;27;45502;-75
2021/12/21 10:45:39;;;;;;;;;60.33;41.33;;;;;3.74;63.49;99876.34;5089648;27;45549;-75
2021/12/21 10:48:07;;;;;;;;;56.67;43.67;;;;;3.81;63.61;99875.47;5082941;27;45496;-75
2021/12/21 10:50:34;;;;;;;;;52.00;41.67;;;;;3.84;62.86;99870.28;5091102;27;45490;-75
2021/12/21 10:53:02;;;;;;;;;59.33;41.67;;;;;3.85;62.83;99861.56;5090430;27;45489;-75
2021/12/21 10:55:36;;;;;;;;;50.67;42.00;;;;;3.87;63.22;99867.63;5094544;27;45585;-75
2021/12/21 10:58:12;;;;;;;;;58.00;45.33;;;;;3.86;63.01;99869.38;5089737;27;45475;-75
2021/12/21 11:00:41;;;;;;;;;59.33;48.00;;;;;3.86;63.08;99866.75;5093168;27;46045;-75
2021/12/21 11:03:07;;;;;;;;;50.67;39.33;;;;;3.89;63.04;99860.69;5093319;27;45446;-75
2021/12/21 11:05:33;;;;;;;;;56.67;43.33;;;;;3.95;62.72;99854.59;5093698;27;45447;-75
2021/12/21 11:08:06;;;;;;;;;46.33;38.33;;;;;3.97;63.25;99855.47;5106671;27;45588;-75
2021/12/21 11:10:35;;;;;;;;;62.00;47.33;;;;;3.97;62.73;99848.50;5094889;27;45485;-75
2021/12/21 11:13:03;;;;;;;;;58.00;44.33;;;;;3.96;63.02;99849.38;5085310;27;46212;-76
2021/12/21 11:15:34;;;;;;;;;61.33;43.00;;;;;3.98;62.86;99846.78;5082445;27;45395;-75
2021/12/21 11:18:04;;;;;;;;;47.33;39.00;;;;;3.95;62.78;99847.63;5093713;27;45426;-75
2021/12/21 11:20:29;;;;;;;;;54.33;39.67;;;;;3.91;63.01;99845.03;5094609;27;45422;-75
2021/12/21 11:22:55;;;;;;;;;20.00;13.00;;;;;3.92;62.93;99839.81;5093774;27;47987;-76
2021/12/21 11:25:22;;;;;;;;;56.67;44.00;;;;;3.95;63.04;99831.13;5093115;27;45778;-76
2021/12/21 11:27:49;;;;;;;;;59.33;43.33;;;;;3.99;62.71;99833.72;5091800;27;45471;-76
2021/12/21 11:30:20;;;;;;;;;52.33;44.00;;;;;4.05;62.86;99823.25;5095732;27;45439;-76
2021/12/21 11:32:49;;;;;;;;;55.00;43.33;;;;;4.11;62.32;99814.56;5087651;27;45692;-76
2021/12/21 11:37:53;;;;;;;;;58.67;45.33;;;;;4.16;62.23;99805.84;5093202;27;45465;-75
2021/12/21 11:40:23;;;;;;;;;45.67;36.00;;;;;4.18;62.47;99805.84;5111173;27;45549;-75
2021/12/21 11:42:51;;;;;;;;;57.33;41.33;;;;;4.17;62.34;99797.16;5093031;27;46105;-75
2021/12/21 11:45:33;;;;;;;;;56.67;44.00;;;;;4.14;62.62;99797.16;5090338;27;45455;-75
2021/12/21 11:47:59;;;;;;;;;50.67;44.00;;;;;4.14;62.74;99793.66;5087573;27;45514;-75
2021/12/21 11:50:25;;;;;;;;;62.00;44.00;;;;;4.09;62.44;99785.84;5091213;27;45552;-75
2021/12/21 11:52:53;;;;;;;;;56.67;40.00;;;;;4.07;62.41;99784.13;5089633;27;45499;-75
2021/12/21 11:55:22;;;;;;;;;60.00;43.33;;;;;4.08;62.57;99775.41;5095269;27;45524;-75
2021/12/21 11:57:51;;;;;;;;;47.00;41.33;;;;;4.09;62.68;99779.75;5089335;27;45379;-75
2021/12/21 12:00:32;;;;;;;;;59.67;47.67;;;;;4.07;62.35;99778.91;5110786;27;45369;-75
2021/12/21 12:03:13;;;;;;;;;59.33;44.00;;;;;4.05;62.20;99780.63;5090589;27;45469;-75
2021/12/21 12:05:51;;;;;;;;;56.67;43.67;;;;;4.05;62.48;99776.28;5095239;27;45459;-75
2021/12/21 12:08:16;;;;;;;;;56.00;43.00;;;;;4.04;62.02;99774.56;5084319;27;45612;-75
2021/12/21 12:10:57;;;;;;;;;54.33;44.00;;;;;4.04;62.42;99769.34;5094865;27;45575;-75
2021/12/21 12:13:33;;;;;;;;;51.00;42.33;;;;;4.05;62.33;99765.84;5089067;27;45649;-75
2021/12/21 12:16:04;;;;;;;;;47.33;41.33;;;;;4.05;62.48;99763.25;5095032;27;45329;-75
2021/12/21 12:18:40;;;;;;;;;51.33;42.67;;;;;4.05;62.53;99765.00;5086350;27;45489;-75
2021/12/21 12:21:21;;;;;;;;;48.00;37.67;;;;;4.06;62.28;99759.75;5092737;27;45553;-75
2021/12/21 12:23:56;;;;;;;;;50.00;37.33;;;;;4.05;62.67;99765.84;5084380;27;46162;-75
2021/12/21 12:26:32;;;;;;;;;52.33;41.67;;;;;4.03;62.25;99761.50;5092461;27;45413;-75
2021/12/21 12:29:09;;;;;;;;;56.33;42.00;;;;;4.01;61.99;99760.69;5094375;27;45422;-75
2021/12/21 12:31:39;;;;;;;;;59.00;45.67;;;;;3.99;62.42;99755.47;5077277;27;45345;-75
2021/12/21 12:34:06;;;;;;;;;49.00;39.33;;;;;3.99;62.46;99752.84;5081046;27;46313;-75
2021/12/21 12:36:50;;;;;;;;;44.00;38.00;;;;;3.96;62.16;99757.22;5094242;27;45683;-75
2021/12/21 12:39:33;;;;;;;;;59.00;43.00;;;;;3.96;62.48;99746.78;5098840;27;45493;-75